Soleil Weather Down

Nearby METAR Reports

 

KCNI - Canton/Cherokee, Georgia, USA
Distance from station: ENE 6mi, 10km
Updated: Thu, 20-Jun-2019 10:55am EDT
Clear
Clear
 Wind from W
Wind: W 10 mph , 17 km/h, Gust: 17 mph , 28 km/h
Temperature: 77°F , 25°C
Dew Point: 66°F , 19°C
Humidity: 69%
Barometer: 29.90 inHg , 1012.5 hPa
Clouds: Clear
Visibility: 10 miles , 16 km
2019/06/20 14:55 KCNI 201455Z AUTO 28009G15KT 250V320 10SM CLR 25/19 A2990 RMK AO2
KRYY - Marietta Mccolum, Georgia, USA
Distance from station: SSW 18mi, 29km
Updated: Thu, 20-Jun-2019 10:50am EDT
Partly cloudy
Partly cloudy
 Wind from WSW
Wind: WSW 12 mph , 19 km/h, Gust: 17 mph , 28 km/h
Temperature: 79°F , 26°C
Dew Point: 66°F , 19°C
Humidity: 65%
Barometer: 29.88 inHg , 1011.9 hPa
Clouds: Partly cloudy
Visibility: 10 miles , 16 km
Cloud details: Partly cloudy 5000 ft
2019/06/20 14:50 KRYY 201450Z 24010G15KT 10SM SCT050 26/19 A2988 RMK AO2 SLP840 T02610194 51016 $
KVPC - Cartersville, Georgia, USA
Distance from station: WSW 22mi, 35km
Updated: Thu, 20-Jun-2019 10:53am EDT
Few Clouds
Few Clouds
 Wind from calm
Wind: Calm
Temperature: 79°F , 26°C
Dew Point: 68°F , 20°C
Humidity: 70%
Barometer: 29.87 inHg , 1011.5 hPa
Clouds: Few Clouds
Visibility: 10 miles , 16 km
Cloud details: Few Clouds 12000 ft
2019/06/20 14:53 KVPC 201453Z AUTO 00000KT 10SM FEW120 26/20 A2987 RMK AO2 SLP100 T02610200 51010
 
KMGE - Dobbins Afb/Mari, Georgia, USA
Distance from station: S 24mi, 39km
Updated: Thu, 20-Jun-2019 10:56am EDT
Mostly cloudy
Mostly cloudy
 Wind from WSW
Wind: WSW 10 mph , 17 km/h
Temperature: 77°F , 25°C
Dew Point: 68°F , 20°C
Humidity: 74%
Barometer: 29.87 inHg , 1011.5 hPa
Clouds: Mostly cloudy
Visibility: 7 miles , 11 km
Cloud details: Partly cloudy 4000 ft
Mostly cloudy 12000 ft
Mostly cloudy 25000 ft
2019/06/20 14:56 KMGE 201456Z 24009KT 7SM SCT040 BKN120 BKN250 25/20 A2987 RMK AO2A SLP106 T02500200 50010 $
KPDK - Peachtree/Dekalb, Georgia, USA
Distance from station: SSE 29mi, 47km
Updated: Thu, 20-Jun-2019 10:53am EDT
Light rain, Partly cloudy
Light rain, Partly cloudy
 Wind from W
Wind: W 12 mph , 19 km/h, Gust: 21 mph , 33 km/h
Temperature: 77°F , 25°C
Dew Point: 68°F , 20°C
Humidity: 74%
Barometer: 29.88 inHg , 1011.9 hPa
Summary: Light rain
Clouds: Partly cloudy
Visibility: 10 miles , 16 km
Cloud details: Few Clouds 3200 ft
Partly cloudy 9000 ft
Partly cloudy 10000 ft
2019/06/20 14:53 KPDK 201453Z 27010G18KT 10SM -RA FEW032 SCT090 SCT100 25/20 A2988 RMK AO2 RAB52 SLP101 P0000 60000 T02500200 51018
KFTY - Atlanta/Fulton, Georgia, USA
Distance from station: S 34mi, 54km
Updated: Thu, 20-Jun-2019 10:53am EDT
Mostly cloudy
Mostly cloudy
 Wind from WSW
Wind: WSW 10 mph , 17 km/h
Temperature: 79°F , 26°C
Dew Point: 68°F , 20°C
Humidity: 70%
Barometer: 29.88 inHg , 1011.9 hPa
Clouds: Mostly cloudy
Visibility: 10 miles , 16 km
Cloud details: Few Clouds 4300 ft
Partly cloudy 9000 ft
Mostly cloudy 11000 ft
2019/06/20 14:53 KFTY 201453Z 24009KT 10SM FEW043 SCT090 BKN110 26/20 A2988 RMK AO2 RAB30E53 SLP107 P0001 60001 T02560200 51010
 
KPUJ - Atlanta/Paulding, Georgia, USA
Distance from station: SW 34mi, 55km
Updated: Thu, 20-Jun-2019 10:55am EDT
Clear
Clear
 Wind from WSW
Wind: WSW 7 mph , 11 km/h
Temperature: 73°F , 23°C
Dew Point: 68°F , 20°C
Humidity: 83%
Barometer: 29.89 inHg , 1012.2 hPa
Clouds: Clear
Visibility: 10 miles , 16 km
2019/06/20 14:55 KPUJ 201455Z AUTO 25006KT 220V280 10SM CLR 23/20 A2989 RMK AO2
KDNN - Dalton, Georgia, USA
Distance from station: NW 37mi, 59km
Updated: Thu, 20-Jun-2019 10:55am EDT
Partly cloudy
Partly cloudy
 Wind from calm
Wind: Calm
Temperature: 77°F , 25°C
Dew Point: 64°F , 18°C
Humidity: 65%
Barometer: 29.87 inHg , 1011.5 hPa
Clouds: Partly cloudy
Visibility: 10 miles , 16 km
Cloud details: Partly cloudy 9000 ft
Partly cloudy 12000 ft
2019/06/20 14:55 KDNN 201455Z AUTO 00000KT 10SM SCT090 SCT120 25/18 A2987 RMK AO2
KLZU - Lawrenceville, Georgia, USA
Distance from station: ESE 37mi, 59km
Updated: Thu, 20-Jun-2019 10:56am EDT
Mostly cloudy
Mostly cloudy
 Wind from W
Wind: W 14 mph , 22 km/h, Gust: 20 mph , 31 km/h
Temperature: 81°F , 27°C
Heat Index: 85°F , 29°C
Dew Point: 70°F , 21°C
Humidity: 70%
Barometer: 29.88 inHg , 1011.9 hPa
Clouds: Mostly cloudy
Visibility: 10 miles , 16 km
Cloud details: Mostly cloudy 3300 ft
2019/06/20 14:56 KLZU 201456Z 26012G17KT 10SM BKN033 27/21 A2988 RMK AO2 SLP118 60000 T02670211 51016
 
KRMG - Rome, Georgia, USA
Distance from station: W 38mi, 61km
Updated: Thu, 20-Jun-2019 10:53am EDT
Few Clouds
Few Clouds
 Wind from varies
Wind: varies 6 mph , 9 km/h
Temperature: 77°F , 25°C
Dew Point: 66°F , 19°C
Humidity: 69%
Barometer: 29.84 inHg , 1010.5 hPa
Clouds: Few Clouds
Visibility: 10 miles , 16 km
Cloud details: Few Clouds 11000 ft
2019/06/20 14:53 KRMG 201453Z AUTO VRB05KT 10SM FEW110 25/19 A2984 RMK AO2 SLP095 T02500189 51006
KGVL - Gainesville, Georgia, USA
Distance from station: E 39mi, 62km
Updated: Thu, 20-Jun-2019 10:53am EDT
Clear
Clear
 Wind from WSW
Wind: WSW 14 mph , 22 km/h, Gust: 23 mph , 37 km/h
Temperature: 81°F , 27°C
Heat Index: 84°F , 29°C
Dew Point: 68°F , 20°C
Humidity: 66%
Barometer: 29.89 inHg , 1012.2 hPa
Clouds: Clear
Visibility: 10 miles , 16 km
2019/06/20 14:53 KGVL 201453Z AUTO 25012G20KT 10SM CLR 27/20 A2989 RMK AO2 SLP103 60001 T02670200 53006
KATL - Atlanta, Georgia, USA
Distance from station: S 44mi, 71km
Updated: Thu, 20-Jun-2019 10:52am EDT
Light rain, Mostly cloudy
Light rain, Mostly cloudy
 Wind from W
Wind: W 16 mph , 26 km/h, Gust: 23 mph , 37 km/h
Temperature: 79°F , 26°C
Dew Point: 66°F , 19°C
Humidity: 65%
Barometer: 29.90 inHg , 1012.5 hPa
Summary: Light rain
Clouds: Mostly cloudy
Visibility: 10 miles , 16 km
Cloud details: Few Clouds 3000 ft
Partly cloudy 5000 ft
Mostly cloudy 7000 ft
Mostly cloudy 15000 ft
Mostly cloudy 25000 ft
2019/06/20 14:52 KATL 201452Z 26014G20KT 10SM R09R/6000VP6000FT -RA FEW030 SCT050 BKN070 BKN150 BKN250 26/19 A2990 RMK AO2 PK WND 26026/1429 RAB47 SLP113 P0000 60000 T02560194 51015